createdAt,value
2022-10-14T00:01:25.923Z,26.17
2022-10-14T00:03:25.856Z,26.10
2022-10-14T00:05:25.759Z,26.06
2022-10-14T00:07:25.786Z,26.04
2022-10-14T00:09:25.905Z,25.85
2022-10-14T00:11:25.896Z,26.08
2022-10-14T00:13:25.743Z,25.97
2022-10-14T00:15:25.791Z,25.83
2022-10-14T00:17:25.794Z,25.99
2022-10-14T00:19:25.788Z,25.29
2022-10-14T00:21:25.765Z,26.07
2022-10-14T00:23:25.827Z,25.95
2022-10-14T00:25:25.870Z,25.99
2022-10-14T00:27:25.837Z,25.90
2022-10-14T00:29:25.892Z,24.95
2022-10-14T00:31:25.924Z,24.90
2022-10-14T00:33:25.850Z,25.94
2022-10-14T00:35:25.913Z,25.88
2022-10-14T00:37:25.977Z,25.75
2022-10-14T00:39:25.898Z,25.95
2022-10-14T00:41:25.858Z,25.96
2022-10-14T00:43:25.939Z,25.05
2022-10-14T00:45:25.929Z,25.95
2022-10-14T00:47:25.769Z,26.02
2022-10-14T00:49:25.961Z,26.06
2022-10-14T00:51:25.786Z,26.04
2022-10-14T00:53:25.853Z,26.00
2022-10-14T00:55:25.922Z,25.99
2022-10-14T00:57:25.950Z,25.99
2022-10-14T00:59:25.955Z,26.02
2022-10-14T01:01:25.936Z,25.90
2022-10-14T01:03:25.949Z,25.12
2022-10-14T01:05:25.883Z,25.82
2022-10-14T01:07:25.952Z,26.07
2022-10-14T01:09:25.894Z,26.09
2022-10-14T01:11:25.952Z,26.10
2022-10-14T01:13:25.913Z,26.08
2022-10-14T01:15:25.978Z,26.16
2022-10-14T01:17:25.936Z,26.14
2022-10-14T01:19:25.959Z,25.94
2022-10-14T01:21:25.981Z,25.23
2022-10-14T01:23:25.837Z,26.14
2022-10-14T01:25:25.890Z,26.14
2022-10-14T01:27:25.896Z,26.06
2022-10-14T01:29:25.961Z,26.07
2022-10-14T01:31:25.915Z,26.00
2022-10-14T01:33:25.894Z,25.99
2022-10-14T01:35:25.989Z,26.14
2022-10-14T01:37:25.984Z,26.22
2022-10-14T01:39:26.036Z,26.28
2022-10-14T01:41:25.882Z,26.21
2022-10-14T01:43:25.904Z,26.20
2022-10-14T01:45:25.846Z,26.22
2022-10-14T01:47:25.988Z,26.13
2022-10-14T01:49:25.885Z,26.13
2022-10-14T01:51:25.984Z,26.08
2022-10-14T01:53:25.941Z,25.98
2022-10-14T01:55:25.881Z,25.80
2022-10-14T01:57:25.899Z,25.93
2022-10-14T01:59:26.002Z,26.03
2022-10-14T02:01:26.020Z,26.04
2022-10-14T02:03:26.007Z,26.08
2022-10-14T02:05:26.026Z,25.96
2022-10-14T02:07:25.977Z,26.14
2022-10-14T02:09:26.015Z,26.18
2022-10-14T02:11:26.022Z,26.14
2022-10-14T02:13:25.910Z,26.14
2022-10-14T02:15:26.044Z,26.19
2022-10-14T02:17:26.088Z,26.21
2022-10-14T02:19:25.909Z,26.29
2022-10-14T02:21:25.885Z,26.14
2022-10-14T02:23:25.899Z,26.22
2022-10-14T02:25:25.936Z,25.99
2022-10-14T02:27:26.012Z,26.08
2022-10-14T02:29:26.023Z,26.08
2022-10-14T02:31:26.025Z,25.97
2022-10-14T02:33:26.036Z,26.11
2022-10-14T02:35:25.964Z,26.02
2022-10-14T02:37:25.982Z,25.82
2022-10-14T02:39:26.037Z,26.06
2022-10-14T02:41:25.961Z,25.29
2022-10-14T02:43:26.039Z,25.85
2022-10-14T02:45:25.994Z,25.22
2022-10-14T02:47:26.079Z,25.29
2022-10-14T02:49:25.984Z,25.09
2022-10-14T02:51:27.053Z,25.83
2022-10-14T02:53:26.010Z,25.28
2022-10-14T02:55:25.937Z,25.81
2022-10-14T02:57:26.027Z,25.96
2022-10-14T02:59:26.083Z,25.51
2022-10-14T03:01:26.077Z,25.37
2022-10-14T03:03:25.990Z,25.88
2022-10-14T03:05:26.059Z,25.74
2022-10-14T03:07:25.962Z,25.76
2022-10-14T03:09:26.128Z,25.79
2022-10-14T03:11:26.148Z,25.90
2022-10-14T03:13:26.021Z,25.21
2022-10-14T03:15:26.075Z,25.84
2022-10-14T03:17:26.059Z,25.63
2022-10-14T03:19:26.091Z,25.83
2022-10-14T03:21:25.995Z,25.22
2022-10-14T03:23:26.055Z,24.95
2022-10-14T03:25:26.088Z,25.60
2022-10-14T03:27:26.100Z,25.96
2022-10-14T03:29:26.044Z,25.37
2022-10-14T03:31:26.115Z,26.11
2022-10-14T03:33:26.155Z,25.94
2022-10-14T03:35:26.130Z,26.04
2022-10-14T03:37:25.990Z,25.99
2022-10-14T03:39:26.115Z,25.97
2022-10-14T03:41:26.025Z,26.07
2022-10-14T03:43:26.031Z,25.99
2022-10-14T03:45:26.198Z,24.98
2022-10-14T03:47:25.965Z,25.82
2022-10-14T03:49:26.104Z,25.97
2022-10-14T03:51:26.084Z,25.86
2022-10-14T03:53:26.128Z,25.65
2022-10-14T03:55:26.137Z,25.80
2022-10-14T03:57:26.111Z,25.97
2022-10-14T03:59:26.143Z,25.44
2022-10-14T04:01:26.158Z,25.82
2022-10-14T04:03:26.119Z,25.83
2022-10-14T04:05:26.132Z,25.86
2022-10-14T04:07:26.130Z,25.61
2022-10-14T04:09:26.149Z,25.28
2022-10-14T04:11:26.148Z,25.21
2022-10-14T04:13:26.197Z,25.23
2022-10-14T04:15:26.068Z,25.24
2022-10-14T04:17:26.149Z,25.90
2022-10-14T04:19:26.196Z,25.91
2022-10-14T04:21:26.053Z,25.06
2022-10-14T04:23:26.192Z,25.09
2022-10-14T04:25:26.237Z,25.77
2022-10-14T04:27:26.159Z,25.39
2022-10-14T04:29:26.180Z,25.12
2022-10-14T04:31:26.179Z,25.22
2022-10-14T04:33:26.182Z,25.13
2022-10-14T04:35:26.071Z,25.15
2022-10-14T04:37:26.174Z,25.23
2022-10-14T04:39:26.175Z,25.29
2022-10-14T04:41:26.168Z,25.42
2022-10-14T04:43:26.194Z,25.80
2022-10-14T04:45:26.155Z,25.19
2022-10-14T04:47:26.190Z,25.82
2022-10-14T04:49:26.197Z,24.94
2022-10-14T04:51:26.105Z,25.51
2022-10-14T04:53:26.174Z,25.21
2022-10-14T04:55:26.204Z,25.89
2022-10-14T04:57:26.163Z,25.91
2022-10-14T04:59:26.153Z,25.81
2022-10-14T05:01:30.260Z,25.82
2022-10-14T05:03:26.233Z,25.88
2022-10-14T05:05:26.071Z,25.83
2022-10-14T05:07:26.243Z,24.36
2022-10-14T05:09:26.223Z,24.28
2022-10-14T05:11:26.169Z,24.23
2022-10-14T05:13:26.115Z,24.30
2022-10-14T05:15:26.265Z,24.10
2022-10-14T05:17:26.207Z,24.25
2022-10-14T05:19:26.130Z,24.29
2022-10-14T05:21:26.120Z,24.20
2022-10-14T05:23:26.295Z,24.23
2022-10-14T05:25:26.234Z,24.19
2022-10-14T05:27:26.205Z,24.04
2022-10-14T05:29:26.218Z,24.29
2022-10-14T05:31:26.087Z,24.38
2022-10-14T05:33:26.232Z,24.27
2022-10-14T05:35:46.739Z,24.33
2022-10-14T05:37:26.264Z,24.34
2022-10-14T05:39:26.259Z,24.34
2022-10-14T05:41:26.300Z,24.34
2022-10-14T05:43:31.810Z,24.25
2022-10-14T05:45:26.239Z,24.16
2022-10-14T05:47:26.309Z,24.26
2022-10-14T05:49:26.197Z,24.20
2022-10-14T05:51:26.262Z,24.19
2022-10-14T05:53:26.259Z,24.23
2022-10-14T05:55:26.168Z,24.20
2022-10-14T05:57:26.192Z,24.32
2022-10-14T05:59:26.239Z,24.27
2022-10-14T06:01:26.167Z,24.35
2022-10-14T06:03:26.278Z,24.12
2022-10-14T06:05:26.285Z,24.12
2022-10-14T06:07:26.201Z,24.15
2022-10-14T06:09:26.284Z,24.10
2022-10-14T06:11:26.272Z,24.27
2022-10-14T06:13:26.212Z,24.20
2022-10-14T06:15:26.237Z,24.36
2022-10-14T06:17:26.274Z,24.16
2022-10-14T06:19:26.282Z,24.18
2022-10-14T06:21:26.230Z,24.22
2022-10-14T06:23:26.198Z,24.21
2022-10-14T06:25:26.199Z,24.16
2022-10-14T06:27:26.337Z,24.28
2022-10-14T06:29:26.214Z,24.22
2022-10-14T06:31:31.256Z,24.32
2022-10-14T06:33:26.318Z,24.27
2022-10-14T06:35:26.299Z,24.27
2022-10-14T06:37:26.307Z,24.16
2022-10-14T06:39:26.328Z,24.14
2022-10-14T06:41:26.300Z,24.20
2022-10-14T06:43:26.365Z,24.20
2022-10-14T06:45:26.350Z,24.25
2022-10-14T06:47:26.323Z,24.21
2022-10-14T06:49:26.316Z,24.14
2022-10-14T06:51:26.333Z,24.26
2022-10-14T06:53:26.390Z,24.25
2022-10-14T06:55:26.354Z,24.26
2022-10-14T06:57:26.402Z,24.36
2022-10-14T06:59:26.347Z,24.36
2022-10-14T07:01:26.361Z,24.34
2022-10-14T07:03:26.304Z,24.38
2022-10-14T07:05:26.294Z,24.35
2022-10-14T07:07:26.315Z,24.41
2022-10-14T07:09:26.304Z,24.39
2022-10-14T07:11:26.339Z,24.27
2022-10-14T07:13:26.258Z,24.30
2022-10-14T07:15:26.328Z,24.38
2022-10-14T07:17:26.327Z,24.39
2022-10-14T07:19:26.372Z,24.52
2022-10-14T07:21:26.267Z,24.41
2022-10-14T07:23:26.370Z,24.38
2022-10-14T07:25:26.250Z,24.38
2022-10-14T07:27:26.251Z,24.48
2022-10-14T07:29:26.388Z,24.44
2022-10-14T07:31:26.304Z,24.50
2022-10-14T07:33:26.428Z,24.51
2022-10-14T07:35:26.270Z,24.54
2022-10-14T07:37:26.310Z,24.66
2022-10-14T07:39:26.331Z,24.66
2022-10-14T07:41:26.309Z,24.65
2022-10-14T07:43:26.403Z,24.71
2022-10-14T07:45:26.381Z,24.65
2022-10-14T07:47:26.347Z,24.66
2022-10-14T07:49:26.384Z,24.68
2022-10-14T07:51:26.340Z,24.78
2022-10-14T07:53:26.391Z,24.66
2022-10-14T07:55:26.400Z,24.83
2022-10-14T07:57:26.388Z,24.89
2022-10-14T07:59:26.411Z,25.08
2022-10-14T08:01:26.476Z,25.09
2022-10-14T08:03:26.412Z,25.03
2022-10-14T08:05:37.710Z,25.09
2022-10-14T08:07:26.352Z,24.98
2022-10-14T08:11:26.357Z,25.19
2022-10-14T08:13:26.308Z,25.49
2022-10-14T08:15:26.384Z,25.62
2022-10-14T08:17:26.311Z,25.93
2022-10-14T08:19:26.444Z,26.99
2022-10-14T08:21:26.360Z,25.35
2022-10-14T08:23:26.417Z,25.36
2022-10-14T08:25:26.428Z,25.45
2022-10-14T08:27:26.303Z,25.52
2022-10-14T08:29:26.383Z,25.61
2022-10-14T08:31:26.280Z,25.60
2022-10-14T08:33:26.416Z,25.44
2022-10-14T08:35:26.341Z,25.65
2022-10-14T08:37:26.352Z,25.90
2022-10-14T08:39:26.464Z,25.79
2022-10-14T08:41:26.410Z,25.46
2022-10-14T08:43:26.453Z,25.57
2022-10-14T08:45:26.458Z,25.52
2022-10-14T08:47:26.450Z,25.51
2022-10-14T08:49:26.385Z,25.65
2022-10-14T08:51:26.295Z,26.65
2022-10-14T08:53:26.315Z,26.06
2022-10-14T08:55:26.481Z,27.05
2022-10-14T08:57:26.498Z,25.51
2022-10-14T08:59:26.458Z,25.42
2022-10-14T09:01:26.489Z,25.42
2022-10-14T09:03:26.417Z,25.58
2022-10-14T09:05:26.514Z,25.80
2022-10-14T09:07:26.491Z,25.80
2022-10-14T09:09:26.357Z,25.75
2022-10-14T09:11:27.056Z,25.44
2022-10-14T09:13:26.506Z,25.48
2022-10-14T09:15:26.567Z,25.54
2022-10-14T09:17:26.366Z,25.81
2022-10-14T09:19:26.522Z,25.75
2022-10-14T09:21:40.644Z,25.88
2022-10-14T09:23:26.379Z,25.82
2022-10-14T09:25:26.497Z,25.80
2022-10-14T09:27:26.674Z,25.91
2022-10-14T09:29:26.472Z,25.94
2022-10-14T09:31:26.494Z,25.86
2022-10-14T09:33:26.495Z,25.83
2022-10-14T09:35:26.461Z,25.93
2022-10-14T09:37:26.496Z,25.80
2022-10-14T09:39:26.487Z,25.80
2022-10-14T09:41:26.485Z,25.65
2022-10-14T09:43:26.553Z,25.53
2022-10-14T09:45:26.463Z,25.09
2022-10-14T09:47:26.513Z,24.66
2022-10-14T09:49:26.473Z,24.50
2022-10-14T09:51:26.514Z,26.08
2022-10-14T09:53:26.380Z,25.80
2022-10-14T09:55:26.507Z,25.83
2022-10-14T09:57:26.435Z,25.97
2022-10-14T09:59:26.374Z,25.86
2022-10-14T10:01:26.521Z,25.63
2022-10-14T10:03:26.437Z,25.83
2022-10-14T10:05:26.553Z,25.99
2022-10-14T10:07:26.414Z,25.99
2022-10-14T10:09:26.560Z,25.93
2022-10-14T10:11:26.536Z,25.84
2022-10-14T10:13:26.578Z,25.94
2022-10-14T10:15:26.554Z,25.89
2022-10-14T10:17:26.430Z,25.80
2022-10-14T10:19:26.534Z,25.79
2022-10-14T10:21:26.484Z,25.86
2022-10-14T10:23:26.457Z,25.81
2022-10-14T10:25:26.520Z,25.94
2022-10-14T10:27:26.562Z,25.92
2022-10-14T10:29:26.558Z,25.54
2022-10-14T10:31:26.713Z,26.25
2022-10-14T10:33:26.482Z,25.65
2022-10-14T10:35:26.540Z,26.85
2022-10-14T10:37:26.563Z,27.55
2022-10-14T10:39:26.571Z,27.59
2022-10-14T10:41:26.557Z,25.77
2022-10-14T10:43:26.582Z,25.75
2022-10-14T10:45:26.484Z,25.72
2022-10-14T10:47:26.552Z,25.80
2022-10-14T10:49:26.500Z,25.47
2022-10-14T10:51:26.557Z,25.52
2022-10-14T10:53:26.591Z,25.42
2022-10-14T10:55:26.591Z,25.65
2022-10-14T10:57:26.596Z,25.65
2022-10-14T10:59:26.571Z,27.36
2022-10-14T11:01:26.603Z,27.60
2022-10-14T11:03:26.601Z,25.63
2022-10-14T11:05:26.442Z,25.83
2022-10-14T11:07:28.110Z,25.65
2022-10-14T11:09:26.502Z,25.80
2022-10-14T11:11:26.613Z,25.81
2022-10-14T11:13:29.378Z,25.81
2022-10-14T11:15:26.581Z,25.63
2022-10-14T11:17:26.699Z,25.52
2022-10-14T11:19:26.583Z,25.52
2022-10-14T11:21:26.622Z,25.58
2022-10-14T11:23:26.628Z,26.04
2022-10-14T11:25:26.530Z,25.47
2022-10-14T11:27:26.958Z,25.61
2022-10-14T11:29:26.628Z,25.40
2022-10-14T11:31:26.528Z,27.30
2022-10-14T11:33:26.601Z,26.71
2022-10-14T11:35:26.612Z,24.99
2022-10-14T11:37:26.598Z,25.37
2022-10-14T11:39:27.913Z,25.79
2022-10-14T11:41:26.644Z,25.48
2022-10-14T11:43:26.637Z,25.31
2022-10-14T11:45:26.532Z,25.35
2022-10-14T11:47:26.640Z,25.21
2022-10-14T11:49:26.677Z,25.65
2022-10-14T11:51:26.618Z,25.65
2022-10-14T11:53:26.755Z,25.60
2022-10-14T11:55:26.645Z,25.46
2022-10-14T11:57:26.641Z,25.33
2022-10-14T11:59:26.662Z,25.32
2022-10-14T12:01:26.650Z,25.36
2022-10-14T12:03:26.566Z,25.19
2022-10-14T12:05:26.687Z,25.26
2022-10-14T12:07:26.596Z,25.39
2022-10-14T12:09:26.797Z,25.28
2022-10-14T12:11:26.671Z,25.40
2022-10-14T12:13:26.685Z,25.52
2022-10-14T12:15:26.695Z,25.25
2022-10-14T12:17:26.633Z,25.33
2022-10-14T12:19:27.105Z,25.60
2022-10-14T12:21:26.672Z,25.55
2022-10-14T12:23:26.738Z,25.60
2022-10-14T12:25:26.698Z,25.57
2022-10-14T12:27:26.738Z,25.16
2022-10-14T12:29:26.693Z,25.46
2022-10-14T12:31:26.596Z,25.22
2022-10-14T12:33:26.965Z,25.22
2022-10-14T12:35:26.709Z,25.39
2022-10-14T12:37:29.197Z,25.55
2022-10-14T12:39:26.725Z,25.29
2022-10-14T12:41:26.685Z,25.52
2022-10-14T12:43:26.707Z,24.95
2022-10-14T12:45:26.577Z,24.98
2022-10-14T12:47:26.595Z,25.37
2022-10-14T12:49:26.629Z,25.52
2022-10-14T12:51:26.709Z,25.51
2022-10-14T12:53:26.741Z,24.04
2022-10-14T12:55:26.628Z,24.27
2022-10-14T12:57:26.660Z,24.72
2022-10-14T12:59:26.680Z,26.10
2022-10-14T13:01:28.145Z,25.88
2022-10-14T13:03:27.388Z,26.05
2022-10-14T13:05:26.723Z,26.03
2022-10-14T13:07:40.360Z,25.58
2022-10-14T13:09:26.637Z,25.99
2022-10-14T13:11:26.616Z,25.75
2022-10-14T13:13:28.275Z,25.89
2022-10-14T13:15:26.582Z,25.54
2022-10-14T13:17:26.908Z,24.86
2022-10-14T13:19:26.666Z,25.12
2022-10-14T13:21:26.759Z,25.97
2022-10-14T13:23:26.785Z,25.57
2022-10-14T13:25:26.654Z,24.66
2022-10-14T13:27:26.775Z,24.66
2022-10-14T13:29:26.715Z,24.61
2022-10-14T13:31:26.734Z,24.43
2022-10-14T13:33:26.723Z,24.36
2022-10-14T13:35:26.749Z,24.31
2022-10-14T13:37:26.676Z,24.41
2022-10-14T13:39:26.644Z,24.51
2022-10-14T13:41:30.796Z,24.65
2022-10-14T13:43:26.740Z,24.90
2022-10-14T13:45:26.774Z,24.94
2022-10-14T13:47:26.773Z,25.00
2022-10-14T13:49:26.622Z,25.00
2022-10-14T13:51:36.441Z,25.11
2022-10-14T13:53:26.787Z,24.96
2022-10-14T13:55:26.767Z,24.85
2022-10-14T13:59:43.434Z,25.80
2022-10-14T14:01:26.810Z,25.95
2022-10-14T14:03:26.820Z,25.57
2022-10-14T14:05:26.832Z,24.92
2022-10-14T14:08:13.535Z,24.87
2022-10-14T14:09:26.765Z,26.22
2022-10-14T14:11:26.811Z,26.00
2022-10-14T14:13:26.803Z,25.95
2022-10-14T14:15:26.795Z,25.83
2022-10-14T14:17:27.169Z,25.85
2022-10-14T14:19:26.815Z,25.76
2022-10-14T14:21:26.823Z,25.58
2022-10-14T14:23:26.863Z,25.82
2022-10-14T14:25:34.917Z,25.65
2022-10-14T14:27:26.806Z,25.80
2022-10-14T14:29:26.840Z,24.96
2022-10-14T14:31:33.643Z,24.66
2022-10-14T14:33:26.840Z,24.64
2022-10-14T14:35:26.832Z,24.43
2022-10-14T14:37:48.144Z,24.48
2022-10-14T14:39:26.853Z,24.38
2022-10-14T14:41:26.656Z,24.39
2022-10-14T14:43:31.303Z,24.21
2022-10-14T14:45:26.826Z,24.10
2022-10-14T14:47:26.683Z,24.19
2022-10-14T14:49:26.837Z,24.15
2022-10-14T14:51:26.777Z,23.84
2022-10-14T14:53:26.843Z,24.04
2022-10-14T14:55:26.729Z,24.29
2022-10-14T14:57:26.858Z,24.47
2022-10-14T14:59:26.757Z,24.48
2022-10-14T15:01:26.697Z,24.41
2022-10-14T15:03:26.868Z,24.41
2022-10-14T15:05:26.841Z,24.41
2022-10-14T15:07:26.839Z,24.37
2022-10-14T15:09:26.867Z,24.28
2022-10-14T15:11:26.873Z,24.27
2022-10-14T15:13:26.767Z,24.23
2022-10-14T15:15:26.788Z,24.25
2022-10-14T15:17:26.846Z,24.23
2022-10-14T15:19:26.927Z,24.43
2022-10-14T15:21:26.782Z,24.28
2022-10-14T15:23:26.894Z,24.39
2022-10-14T15:25:26.883Z,24.34
2022-10-14T15:27:26.900Z,24.33
2022-10-14T15:29:26.795Z,24.15
2022-10-14T15:31:26.836Z,24.18
2022-10-14T15:33:26.724Z,24.12
2022-10-14T15:35:26.841Z,24.15
2022-10-14T15:37:26.751Z,24.01
2022-10-14T15:39:26.871Z,24.04
2022-10-14T15:41:26.896Z,24.02
2022-10-14T15:43:26.883Z,24.04
2022-10-14T15:45:26.950Z,24.10
2022-10-14T15:47:26.923Z,24.07
2022-10-14T15:49:26.870Z,24.16
2022-10-14T15:51:26.879Z,24.10
2022-10-14T15:53:26.907Z,24.10
2022-10-14T15:55:26.926Z,24.10
2022-10-14T15:57:27.015Z,24.04
2022-10-14T15:59:26.933Z,24.07
2022-10-14T16:01:26.862Z,23.94
2022-10-14T16:03:26.936Z,24.01
2022-10-14T16:05:26.763Z,23.93
2022-10-14T16:07:26.940Z,23.88
2022-10-14T16:09:26.918Z,24.09
2022-10-14T16:11:26.886Z,24.05
2022-10-14T16:13:26.799Z,24.12
2022-10-14T16:15:26.779Z,24.00
2022-10-14T16:17:26.837Z,23.96
2022-10-14T16:19:26.840Z,23.84
2022-10-14T16:21:26.842Z,23.91
2022-10-14T16:23:30.997Z,23.87
2022-10-14T16:25:26.892Z,23.90
2022-10-14T16:27:27.183Z,23.98
2022-10-14T16:29:26.923Z,23.99
2022-10-14T16:31:26.800Z,23.96
2022-10-14T16:33:26.897Z,23.98
2022-10-14T16:35:26.952Z,23.95
2022-10-14T16:37:26.908Z,23.93
2022-10-14T16:39:26.960Z,23.87
2022-10-14T16:41:26.927Z,23.82
2022-10-14T16:43:26.954Z,23.87
2022-10-14T16:45:26.808Z,23.77
2022-10-14T16:47:26.967Z,23.82
2022-10-14T16:49:26.949Z,23.80
2022-10-14T16:51:26.914Z,23.73
2022-10-14T16:53:26.990Z,23.68
2022-10-14T16:55:26.988Z,23.63
2022-10-14T16:57:27.005Z,23.66
2022-10-14T16:59:27.005Z,23.72
2022-10-14T17:01:27.018Z,23.65
2022-10-14T17:03:26.919Z,23.76
2022-10-14T17:05:26.964Z,23.63
2022-10-14T17:07:26.906Z,23.62
2022-10-14T17:09:27.069Z,23.65
2022-10-14T17:11:27.012Z,23.82
2022-10-14T17:13:27.023Z,23.77
2022-10-14T17:15:27.029Z,23.60
2022-10-14T17:17:27.014Z,23.67
2022-10-14T17:19:27.015Z,23.71
2022-10-14T17:21:26.942Z,23.73
2022-10-14T17:23:27.012Z,23.73
2022-10-14T17:25:26.986Z,23.65
2022-10-14T17:27:27.008Z,23.64
2022-10-14T17:29:27.107Z,23.59
2022-10-14T17:31:27.003Z,23.77
2022-10-14T17:33:26.947Z,23.54
2022-10-14T17:35:26.883Z,23.63
2022-10-14T17:37:27.003Z,23.63
2022-10-14T17:39:29.392Z,23.65
2022-10-14T17:41:27.010Z,23.53
2022-10-14T17:43:27.047Z,23.67
2022-10-14T17:45:26.969Z,23.65
2022-10-14T17:47:26.964Z,23.62
2022-10-14T17:49:27.009Z,23.73
2022-10-14T17:51:26.982Z,23.67
2022-10-14T17:53:27.130Z,23.62
2022-10-14T17:55:27.052Z,23.54
2022-10-14T17:57:27.054Z,23.61
2022-10-14T17:59:26.991Z,23.65
2022-10-14T18:01:37.183Z,23.59
2022-10-14T18:03:26.959Z,23.62
2022-10-14T18:05:26.903Z,23.63
2022-10-14T18:07:27.064Z,23.80
2022-10-14T18:09:26.985Z,23.61
2022-10-14T18:11:29.593Z,23.81
2022-10-14T18:13:27.108Z,23.54
2022-10-14T18:15:26.950Z,23.39
2022-10-14T18:17:26.954Z,23.49
2022-10-14T18:19:27.130Z,23.54
2022-10-14T18:21:27.377Z,23.54
2022-10-14T18:23:27.152Z,23.41
2022-10-14T18:25:27.101Z,23.69
2022-10-14T18:27:27.051Z,23.58
2022-10-14T18:29:27.068Z,23.55
2022-10-14T18:31:26.968Z,23.42
2022-10-14T18:33:27.083Z,23.41
2022-10-14T18:35:27.123Z,23.39
2022-10-14T18:37:27.112Z,23.65
2022-10-14T18:39:27.462Z,23.68
2022-10-14T18:41:27.050Z,23.79
2022-10-14T18:43:26.978Z,23.81
2022-10-14T18:45:27.177Z,23.82
2022-10-14T18:47:27.128Z,23.81
2022-10-14T18:49:27.225Z,23.81
2022-10-14T18:51:27.101Z,23.72
2022-10-14T18:53:26.991Z,23.80
2022-10-14T18:55:27.127Z,23.82
2022-10-14T18:57:27.148Z,23.80
2022-10-14T18:59:27.136Z,23.72
2022-10-14T19:01:27.164Z,23.80
2022-10-14T19:03:27.113Z,23.84
2022-10-14T19:05:32.191Z,23.73
2022-10-14T19:07:27.085Z,23.73
2022-10-14T19:09:27.349Z,23.75
2022-10-14T19:11:27.110Z,23.72
2022-10-14T19:13:27.153Z,23.59
2022-10-14T19:15:27.137Z,23.79
2022-10-14T19:17:27.102Z,23.65
2022-10-14T19:19:27.126Z,23.31
2022-10-14T19:21:27.390Z,23.40
2022-10-14T19:23:27.188Z,23.73
2022-10-14T19:25:27.336Z,23.49
2022-10-14T19:27:27.175Z,23.39
2022-10-14T19:29:27.108Z,23.58
2022-10-14T19:31:27.193Z,23.38
2022-10-14T19:33:27.113Z,23.66
2022-10-14T19:35:27.161Z,23.24
2022-10-14T19:37:27.525Z,23.36
2022-10-14T19:39:27.165Z,23.57
2022-10-14T19:41:27.240Z,23.35
2022-10-14T19:43:27.209Z,23.44
2022-10-14T19:45:27.131Z,23.35
2022-10-14T19:47:27.168Z,23.63
2022-10-14T19:49:27.025Z,23.57
2022-10-14T19:51:27.235Z,23.63
2022-10-14T19:53:27.233Z,23.64
2022-10-14T19:55:27.080Z,23.72
2022-10-14T19:57:27.156Z,23.61
2022-10-14T19:59:27.165Z,23.58
2022-10-14T20:01:27.262Z,23.62
2022-10-14T20:03:27.088Z,23.56
2022-10-14T20:05:27.203Z,23.67
2022-10-14T20:07:27.136Z,23.53
2022-10-14T20:09:27.294Z,23.54
2022-10-14T20:11:27.093Z,23.55
2022-10-14T20:13:27.352Z,23.48
2022-10-14T20:15:27.212Z,23.44
2022-10-14T20:17:27.426Z,23.37
2022-10-14T20:19:27.046Z,23.65
2022-10-14T20:21:27.160Z,23.53
2022-10-14T20:23:27.208Z,23.59
2022-10-14T20:25:27.248Z,23.57
2022-10-14T20:27:27.276Z,23.54
2022-10-14T20:29:27.060Z,23.62
2022-10-14T20:31:27.233Z,23.57
2022-10-14T20:33:27.240Z,23.53
2022-10-14T20:37:28.260Z,23.40
2022-10-14T20:39:27.548Z,23.49
2022-10-14T20:41:27.114Z,23.26
2022-10-14T20:43:27.223Z,23.49
2022-10-14T20:45:27.179Z,23.44
2022-10-14T20:47:27.198Z,23.25
2022-10-14T20:49:27.211Z,23.53
2022-10-14T20:51:27.211Z,23.53
2022-10-14T20:53:27.252Z,23.26
2022-10-14T20:55:27.213Z,23.25
2022-10-14T20:57:27.233Z,23.50
2022-10-14T20:59:27.234Z,23.27
2022-10-14T21:01:27.322Z,23.25
2022-10-14T21:03:27.171Z,23.28
2022-10-14T21:05:27.108Z,23.47
2022-10-14T21:07:27.244Z,23.22
2022-10-14T21:09:27.164Z,23.53
2022-10-14T21:11:27.161Z,23.52
2022-10-14T21:13:27.301Z,23.25
2022-10-14T21:15:27.267Z,23.24
2022-10-14T21:17:27.250Z,23.18
2022-10-14T21:19:27.180Z,23.42
2022-10-14T21:21:27.154Z,23.49
2022-10-14T21:23:27.283Z,23.42
2022-10-14T21:25:27.273Z,23.42
2022-10-14T21:27:27.289Z,23.24
2022-10-14T21:29:27.251Z,23.53
2022-10-14T21:31:27.200Z,23.26
2022-10-14T21:33:27.221Z,23.29
2022-10-14T21:35:27.295Z,23.49
2022-10-14T21:37:27.261Z,23.53
2022-10-14T21:39:27.276Z,23.47
2022-10-14T21:41:27.262Z,23.45
2022-10-14T21:43:27.317Z,23.47
2022-10-14T21:45:27.306Z,23.45
2022-10-14T21:47:27.313Z,23.41
2022-10-14T21:49:27.305Z,23.47
2022-10-14T21:51:27.342Z,23.43
2022-10-14T21:53:27.305Z,23.43
2022-10-14T21:55:27.261Z,23.42
2022-10-14T21:57:27.212Z,23.47
2022-10-14T21:59:27.346Z,23.40
2022-10-14T22:01:27.517Z,23.15
2022-10-14T22:03:27.337Z,23.25
2022-10-14T22:05:27.213Z,23.41
2022-10-14T22:07:27.324Z,23.26
2022-10-14T22:09:27.245Z,23.15
2022-10-14T22:11:27.305Z,23.33
2022-10-14T22:13:27.340Z,23.16
2022-10-14T22:15:27.333Z,23.19
2022-10-14T22:17:27.238Z,23.40
2022-10-14T22:19:27.338Z,23.08
2022-10-14T22:21:27.302Z,23.49
2022-10-14T22:23:27.321Z,23.43
2022-10-14T22:25:27.302Z,23.38
2022-10-14T22:27:27.403Z,23.39
2022-10-14T22:29:27.334Z,23.11
2022-10-14T22:31:27.267Z,23.17
2022-10-14T22:33:27.214Z,23.49
2022-10-14T22:35:27.357Z,23.42
2022-10-14T22:37:27.254Z,23.42
2022-10-14T22:39:27.391Z,23.34
2022-10-14T22:41:30.957Z,23.13
2022-10-14T22:43:27.305Z,23.17
2022-10-14T22:45:27.258Z,23.39
2022-10-14T22:47:27.439Z,23.34
2022-10-14T22:49:27.363Z,23.42
2022-10-14T22:53:27.281Z,23.34
2022-10-14T22:55:27.392Z,22.99
2022-10-14T22:57:27.412Z,23.08
2022-10-14T22:59:27.406Z,23.42
2022-10-14T23:01:27.267Z,23.31
2022-10-14T23:03:27.357Z,23.40
2022-10-14T23:05:27.309Z,23.26
2022-10-14T23:07:27.321Z,23.38
2022-10-14T23:09:27.500Z,23.25
2022-10-14T23:11:27.383Z,23.06
2022-10-14T23:13:27.396Z,23.10
2022-10-14T23:15:27.272Z,23.34
2022-10-14T23:17:27.253Z,23.31
2022-10-14T23:19:27.312Z,23.09
2022-10-14T23:21:27.482Z,23.09
2022-10-14T23:23:27.402Z,23.13
2022-10-14T23:25:27.421Z,23.26
2022-10-14T23:27:27.358Z,23.25
2022-10-14T23:29:27.418Z,23.31
2022-10-14T23:31:27.279Z,23.36
2022-10-14T23:33:27.429Z,23.27
2022-10-14T23:35:27.329Z,23.34
2022-10-14T23:37:27.443Z,23.34
2022-10-14T23:39:27.349Z,23.34
2022-10-14T23:41:27.383Z,23.30
2022-10-14T23:43:27.329Z,23.36
2022-10-14T23:45:27.406Z,23.33
2022-10-14T23:47:27.425Z,23.24
2022-10-14T23:49:27.443Z,23.38
2022-10-14T23:51:27.441Z,23.25
2022-10-14T23:53:27.458Z,23.12
2022-10-14T23:55:27.456Z,22.90
2022-10-14T23:57:27.463Z,22.95
2022-10-14T23:59:27.376Z,22.87
